createdAt,value
2018-07-20T00:01:00.903Z,100232.59
2018-07-20T00:06:04.443Z,100239.50
2018-07-20T00:11:09.248Z,100236.77
2018-07-20T00:16:13.234Z,100237.87
2018-07-20T00:21:16.964Z,100235.70
2018-07-20T00:26:21.385Z,100233.27
2018-07-20T00:31:24.940Z,100226.42
2018-07-20T00:36:28.874Z,100231.64
2018-07-20T00:41:32.870Z,100238.81
2018-07-20T00:46:36.929Z,100239.14
2018-07-20T00:51:41.673Z,100230.42
2018-07-20T00:56:45.297Z,100235.39
2018-07-20T01:01:49.332Z,100235.20
2018-07-20T01:06:52.938Z,100230.23
2018-07-20T01:11:57.596Z,100229.94
2018-07-20T01:17:01.247Z,100227.92
2018-07-20T01:22:05.058Z,100228.31
2018-07-20T01:27:08.681Z,100224.44
2018-07-20T01:32:12.345Z,100219.23
2018-07-20T01:37:16.126Z,100222.45
2018-07-20T01:42:19.805Z,100218.45
2018-07-20T01:47:23.427Z,100212.66
2018-07-20T01:52:27.085Z,100211.77
2018-07-20T01:57:30.652Z,100205.16
2018-07-20T02:02:34.777Z,100204.48
2018-07-20T02:07:38.357Z,100204.53
2018-07-20T02:12:42.057Z,100210.28
2018-07-20T02:17:46.653Z,100211.23
2018-07-20T02:22:50.267Z,100210.13
2018-07-20T02:27:53.853Z,100214.65
2018-07-20T02:32:57.631Z,100219.89
2018-07-20T02:38:01.175Z,100210.87
2018-07-20T02:43:04.818Z,100211.06
2018-07-20T02:48:08.466Z,100208.95
2018-07-20T02:53:12.109Z,100207.08
2018-07-20T02:58:15.754Z,100198.38
2018-07-20T03:03:19.342Z,100196.42
2018-07-20T03:08:22.919Z,100193.66
2018-07-20T03:13:26.471Z,100196.83
2018-07-20T03:18:30.026Z,100189.94
2018-07-20T03:23:34.529Z,100189.88
2018-07-20T03:28:38.041Z,100192.94
2018-07-20T03:33:41.557Z,100190.23
2018-07-20T03:38:45.165Z,100185.38
2018-07-20T03:43:49.021Z,100185.44
2018-07-20T03:48:52.722Z,100185.83
2018-07-20T03:53:56.202Z,100190.34
2018-07-20T03:58:59.681Z,100178.58
2018-07-20T04:04:03.228Z,100175.44
2018-07-20T04:09:12.094Z,100179.00
2018-07-20T04:14:15.706Z,100182.00
2018-07-20T04:19:19.284Z,100185.37
2018-07-20T04:24:22.857Z,100185.91
2018-07-20T04:29:26.417Z,100187.05
2018-07-20T04:34:29.975Z,100185.72
2018-07-20T04:39:33.506Z,100196.70
2018-07-20T04:44:36.993Z,100189.55
2018-07-20T04:49:40.563Z,100184.16
2018-07-20T04:54:44.661Z,100189.49
2018-07-20T04:59:48.158Z,100187.66
2018-07-20T05:04:51.709Z,100178.86
2018-07-20T05:09:55.731Z,100181.14
2018-07-20T05:14:59.798Z,100177.72
2018-07-20T05:20:07.700Z,100180.73
2018-07-20T05:25:12.448Z,100180.63
2018-07-20T05:30:16.652Z,100180.94
2018-07-20T05:35:20.622Z,100175.38
2018-07-20T05:40:25.247Z,100181.12
2018-07-20T05:45:29.989Z,100174.67
2018-07-20T05:50:34.698Z,100176.16
2018-07-20T05:55:40.636Z,100178.83
2018-07-20T06:00:44.786Z,100180.03
2018-07-20T06:05:48.764Z,100186.95
2018-07-20T06:10:52.824Z,100184.84
2018-07-20T06:15:56.924Z,100180.63
2018-07-20T06:21:00.942Z,100181.59
2018-07-20T06:26:05.603Z,100174.39
2018-07-20T06:31:09.628Z,100171.08
2018-07-20T06:36:13.620Z,100167.98
2018-07-20T06:41:17.592Z,100164.31
2018-07-20T06:46:21.541Z,100168.48
2018-07-20T06:51:25.476Z,100173.23
2018-07-20T06:56:29.338Z,100173.91
2018-07-20T07:01:34.116Z,100174.48
2018-07-20T07:06:38.197Z,100167.28
2018-07-20T07:11:42.069Z,100165.83
2018-07-20T07:16:46.229Z,100171.23
2018-07-20T07:21:51.625Z,100173.20
2018-07-20T07:26:56.322Z,100177.62
2018-07-20T07:32:02.311Z,100176.03
2018-07-20T07:37:06.566Z,100178.02
2018-07-20T07:42:13.849Z,100181.05
2018-07-20T07:47:18.207Z,100171.59
2018-07-20T07:52:22.340Z,100167.58
2018-07-20T07:57:28.143Z,100177.14
2018-07-20T08:02:34.015Z,100171.99
2018-07-20T08:07:38.840Z,100168.80
2018-07-20T08:12:43.752Z,100164.47
2018-07-20T08:17:47.561Z,100168.80
2018-07-20T08:22:51.737Z,100168.27
2018-07-20T08:27:55.691Z,100166.12
2018-07-20T08:33:00.548Z,100153.11
2018-07-20T08:38:04.427Z,100154.47
2018-07-20T08:43:10.471Z,100156.63
2018-07-20T08:48:15.151Z,100150.39
2018-07-20T08:53:24.969Z,100149.77
2018-07-20T08:58:28.899Z,100147.79
2018-07-20T09:03:32.923Z,100140.66
2018-07-20T09:08:36.960Z,100132.75
2018-07-20T09:13:41.024Z,100135.75
2018-07-20T09:18:45.020Z,100126.63
2018-07-20T09:23:49.010Z,100126.95
2018-07-20T09:28:54.031Z,100119.42
2018-07-20T09:33:57.997Z,100110.86
2018-07-20T09:39:01.908Z,100109.91
2018-07-20T09:44:05.841Z,100109.75
2018-07-20T09:49:09.952Z,100104.94
2018-07-20T09:54:13.803Z,100106.65
2018-07-20T09:59:18.235Z,100104.13
2018-07-20T10:04:22.301Z,100096.31
2018-07-20T10:09:26.287Z,100097.92
2018-07-20T10:14:30.164Z,100095.77
2018-07-20T10:19:34.352Z,100089.52
2018-07-20T10:24:39.877Z,100091.89
2018-07-20T10:29:45.856Z,100084.63
2018-07-20T10:34:50.215Z,100086.58
2018-07-20T10:39:54.190Z,100073.36
2018-07-20T10:44:58.144Z,100067.34
2018-07-20T10:50:06.612Z,100069.14
2018-07-20T10:55:14.352Z,100069.81
2018-07-20T11:00:18.373Z,100073.47
2018-07-20T11:05:22.316Z,100059.83
2018-07-20T11:10:27.089Z,100059.67
2018-07-20T11:15:31.164Z,100054.22
2018-07-20T11:20:35.277Z,100054.98
2018-07-20T11:25:39.226Z,100042.33
2018-07-20T11:30:43.848Z,100041.42
2018-07-20T11:35:47.956Z,100029.25
2018-07-20T11:40:51.972Z,100031.00
2018-07-20T11:45:56.601Z,100015.66
2018-07-20T11:51:01.128Z,100011.98
2018-07-20T11:56:05.109Z,100002.66
2018-07-20T12:01:09.326Z,100001.81
2018-07-20T12:06:15.423Z,100001.09
2018-07-20T12:11:20.377Z,100003.58
2018-07-20T12:16:25.042Z,100003.43
2018-07-20T12:21:31.012Z,99995.98
2018-07-20T12:26:36.546Z,99995.47
2018-07-20T12:31:41.351Z,99994.30
2018-07-20T12:36:46.066Z,99995.09
2018-07-20T12:41:50.283Z,99990.36
2018-07-20T12:46:54.683Z,99990.01
2018-07-20T12:51:58.967Z,99977.54
2018-07-20T12:57:04.335Z,99975.96
2018-07-20T13:02:09.300Z,99963.86
2018-07-20T13:07:13.506Z,99956.11
2018-07-20T13:12:19.775Z,99945.83
2018-07-20T13:17:23.854Z,99946.28
2018-07-20T13:22:30.058Z,99937.78
2018-07-20T13:27:34.952Z,99934.92
2018-07-20T13:32:39.247Z,99924.85
2018-07-20T13:37:43.344Z,99915.63
2018-07-20T13:42:47.542Z,99917.73
2018-07-20T13:47:51.817Z,99907.05
2018-07-20T13:52:56.050Z,99898.28
2018-07-20T13:58:00.091Z,99895.95
2018-07-20T14:03:03.992Z,99891.75
2018-07-20T14:08:07.949Z,99881.88
2018-07-20T14:13:12.136Z,99886.08
2018-07-20T14:18:16.181Z,99882.30
2018-07-20T14:23:20.393Z,99877.11
2018-07-20T14:28:24.275Z,99881.70
2018-07-20T14:33:28.212Z,99876.53
2018-07-20T14:38:32.839Z,99858.70
2018-07-20T14:43:36.951Z,99857.66
2018-07-20T14:48:41.151Z,99853.96
2018-07-20T14:53:45.194Z,99849.27
2018-07-20T14:58:49.815Z,99846.59
2018-07-20T15:03:55.438Z,99846.68
2018-07-20T15:09:00.853Z,99839.12
2018-07-20T15:14:04.705Z,99833.17
2018-07-20T15:19:08.571Z,99834.77
2018-07-20T15:24:14.191Z,99819.59
2018-07-20T15:29:22.286Z,99821.98
2018-07-20T15:34:26.500Z,99815.66
2018-07-20T15:39:30.724Z,99804.05
2018-07-20T15:44:35.198Z,99796.72
2018-07-20T15:49:45.410Z,99793.88
2018-07-20T15:54:50.877Z,99790.34
2018-07-20T15:59:56.257Z,99785.09
2018-07-20T16:10:11.484Z,99772.33
2018-07-20T16:15:19.294Z,99780.30
2018-07-20T16:20:23.843Z,99775.53
2018-07-20T16:25:29.266Z,99769.89
2018-07-20T16:30:33.810Z,99773.68
2018-07-20T16:35:38.086Z,99762.58
2018-07-20T16:40:42.366Z,99762.39
2018-07-20T16:45:47.089Z,99756.39
2018-07-20T16:50:50.982Z,99753.94
2018-07-20T16:55:55.375Z,99746.28
2018-07-20T17:01:00.213Z,99745.42
2018-07-20T17:06:05.488Z,99742.23
2018-07-20T17:11:10.260Z,99743.42
2018-07-20T17:16:14.700Z,99739.95
2018-07-20T17:21:19.098Z,99736.05
2018-07-20T17:26:23.708Z,99740.39
2018-07-20T17:31:28.053Z,99741.37
2018-07-20T17:36:32.447Z,99739.98
2018-07-20T17:41:36.855Z,99735.80
2018-07-20T17:46:41.406Z,99734.94
2018-07-20T17:51:46.021Z,99737.91
2018-07-20T17:56:50.354Z,99733.37
2018-07-20T18:01:54.962Z,99742.23
2018-07-20T18:06:59.281Z,99738.25
2018-07-20T18:12:04.110Z,99738.90
2018-07-20T18:17:08.435Z,99744.09
2018-07-20T18:22:14.193Z,99745.55
2018-07-20T18:27:19.405Z,99745.72
2018-07-20T18:32:24.536Z,99749.72
2018-07-20T18:37:34.636Z,99755.42
2018-07-20T18:42:40.514Z,99758.26
2018-07-20T18:47:45.318Z,99761.62
2018-07-20T18:52:49.986Z,99754.73
2018-07-20T18:57:55.118Z,99760.36
2018-07-20T19:02:59.785Z,99770.18
2018-07-20T19:08:04.247Z,99758.14
2018-07-20T19:13:09.137Z,99760.72
2018-07-20T19:18:14.060Z,99768.73
2018-07-20T19:23:18.953Z,99767.75
2018-07-20T19:28:29.884Z,99773.53
2018-07-20T19:33:35.344Z,99772.57
2018-07-20T19:38:40.171Z,99772.45
2018-07-20T19:43:44.606Z,99774.95
2018-07-20T19:48:48.994Z,99773.70
2018-07-20T19:53:52.804Z,99778.86
2018-07-20T19:58:57.860Z,99772.32
2018-07-20T20:04:02.250Z,99775.38
2018-07-20T20:09:09.069Z,99775.62
2018-07-20T20:14:13.386Z,99794.02
2018-07-20T20:19:18.028Z,99797.84
2018-07-20T20:24:22.166Z,99791.47
2018-07-20T20:29:26.872Z,99791.80
2018-07-20T20:34:31.171Z,99798.15
2018-07-20T20:39:35.537Z,99800.22
2018-07-20T20:44:40.749Z,99802.28
2018-07-20T20:49:44.715Z,99809.42
2018-07-20T20:54:49.625Z,99810.70
2018-07-20T20:59:53.277Z,99800.73
2018-07-20T21:04:57.005Z,99800.16
2018-07-20T21:10:01.331Z,99799.09
2018-07-20T21:15:05.333Z,99802.96
2018-07-20T21:20:09.148Z,99799.98
2018-07-20T21:25:12.829Z,99797.36
2018-07-20T21:30:16.763Z,99797.44
2018-07-20T21:35:21.210Z,99788.57
2018-07-20T21:40:25.394Z,99786.06
2018-07-20T21:45:30.348Z,99788.25
2018-07-20T21:50:35.143Z,99790.42
2018-07-20T21:55:39.758Z,99785.05
2018-07-20T22:00:43.865Z,99786.13
2018-07-20T22:05:47.733Z,99779.38
2018-07-20T22:10:51.884Z,99782.63
2018-07-20T22:15:56.031Z,99788.83
2018-07-20T22:20:59.943Z,99779.93
2018-07-20T22:26:05.544Z,99780.47
2018-07-20T22:31:11.714Z,99797.22
2018-07-20T22:36:15.991Z,99783.72
2018-07-20T22:41:19.922Z,99792.92
2018-07-20T22:46:23.546Z,99800.74
2018-07-20T22:51:27.581Z,99803.44
2018-07-20T22:56:31.794Z,99810.19
2018-07-20T23:01:35.718Z,99811.55
2018-07-20T23:06:39.265Z,99813.98
2018-07-20T23:11:42.882Z,99812.91
2018-07-20T23:16:47.899Z,99806.14
2018-07-20T23:21:52.741Z,99799.94
2018-07-20T23:26:56.699Z,99796.69
2018-07-20T23:32:00.414Z,99792.63
2018-07-20T23:37:05.478Z,99794.52
2018-07-20T23:42:09.384Z,99795.00
2018-07-20T23:47:13.233Z,99787.37
2018-07-20T23:52:17.558Z,99788.73
2018-07-20T23:57:22.616Z,99780.31
